createdAt,value
2019-04-04T00:00:31.551Z,62.50
2019-04-04T00:01:34.468Z,62.50
2019-04-04T00:02:35.480Z,62.50
2019-04-04T00:03:36.788Z,62.50
2019-04-04T00:04:37.843Z,62.80
2019-04-04T00:05:38.846Z,62.60
2019-04-04T00:06:39.865Z,62.60
2019-04-04T00:07:40.880Z,62.90
2019-04-04T00:08:41.892Z,62.90
2019-04-04T00:09:42.918Z,62.80
2019-04-04T00:10:43.928Z,62.90
2019-04-04T00:11:44.935Z,63.10
2019-04-04T00:12:45.935Z,63.10
2019-04-04T00:13:46.943Z,63.30
2019-04-04T00:14:47.964Z,63.50
2019-04-04T00:15:49.008Z,63.20
2019-04-04T00:16:50.016Z,63.20
2019-04-04T00:17:53.474Z,63.40
2019-04-04T00:18:53.938Z,63.20
2019-04-04T00:19:54.958Z,63.70
2019-04-04T00:20:55.961Z,63.90
2019-04-04T00:21:56.970Z,64.10
2019-04-04T00:22:57.980Z,63.90
2019-04-04T00:23:58.986Z,64.20
2019-04-04T00:24:59.995Z,64.20
2019-04-04T00:26:01.323Z,63.70
2019-04-04T00:27:02.326Z,64.00
2019-04-04T00:28:03.324Z,63.80
2019-04-04T00:29:04.320Z,64.00
2019-04-04T00:30:05.544Z,64.00
2019-04-04T00:31:06.549Z,63.80
2019-04-04T00:32:07.571Z,63.70
2019-04-04T00:33:08.571Z,63.70
2019-04-04T00:34:09.580Z,63.50
2019-04-04T00:35:10.701Z,63.60
2019-04-04T00:36:11.944Z,63.50
2019-04-04T00:37:12.950Z,63.60
2019-04-04T00:38:13.943Z,63.70
2019-04-04T00:39:14.949Z,63.30
2019-04-04T00:40:15.964Z,63.30
2019-04-04T00:41:16.976Z,62.90
2019-04-04T00:42:17.992Z,63.20
2019-04-04T00:43:20.829Z,63.00
2019-04-04T00:44:23.183Z,63.30
2019-04-04T00:45:24.843Z,63.20
2019-04-04T00:46:25.850Z,63.20
2019-04-04T00:47:26.874Z,64.30
2019-04-04T00:48:27.893Z,63.50
2019-04-04T00:49:28.891Z,63.50
2019-04-04T00:50:29.918Z,63.20
2019-04-04T00:51:30.922Z,63.30
2019-04-04T00:52:31.923Z,63.40
2019-04-04T00:53:32.933Z,64.20
2019-04-04T00:54:34.271Z,64.00
2019-04-04T00:55:35.306Z,63.90
2019-04-04T00:56:36.641Z,64.00
2019-04-04T00:57:37.652Z,64.00
2019-04-04T00:58:38.668Z,63.90
2019-04-04T00:59:39.686Z,63.80
2019-04-04T01:00:40.696Z,64.30
2019-04-04T01:01:41.708Z,64.60
2019-04-04T01:02:42.708Z,64.60
2019-04-04T01:03:43.725Z,64.50
2019-04-04T01:04:44.734Z,64.50
2019-04-04T01:05:45.750Z,64.50
2019-04-04T01:06:46.752Z,64.90
2019-04-04T01:07:47.759Z,65.20
2019-04-04T01:08:48.769Z,65.00
2019-04-04T01:09:49.784Z,65.00
2019-04-04T01:10:50.802Z,65.00
2019-04-04T01:11:51.873Z,64.80
2019-04-04T01:12:52.913Z,65.00
2019-04-04T01:13:53.917Z,65.40
2019-04-04T01:14:54.925Z,65.10
2019-04-04T01:15:55.954Z,65.10
2019-04-04T01:16:57.002Z,65.10
2019-04-04T01:17:58.022Z,65.30
2019-04-04T01:18:59.024Z,65.30
2019-04-04T01:20:00.033Z,65.40
2019-04-04T01:21:01.055Z,65.70
2019-04-04T01:22:02.089Z,65.80
2019-04-04T01:23:03.096Z,65.40
2019-04-04T01:24:04.109Z,65.10
2019-04-04T01:25:07.018Z,65.20
2019-04-04T01:26:08.060Z,65.40
2019-04-04T01:27:09.069Z,65.30
2019-04-04T01:28:10.078Z,65.10
2019-04-04T01:29:11.224Z,65.30
2019-04-04T01:30:12.731Z,65.10
2019-04-04T01:31:14.985Z,65.40
2019-04-04T01:32:17.106Z,65.40
2019-04-04T01:33:20.092Z,65.70
2019-04-04T01:34:21.549Z,65.50
2019-04-04T01:35:23.241Z,65.60
2019-04-04T01:36:25.216Z,65.90
2019-04-04T01:37:27.759Z,66.00
2019-04-04T01:38:29.209Z,65.80
2019-04-04T01:39:31.207Z,65.80
2019-04-04T01:40:33.813Z,66.10
2019-04-04T01:41:36.423Z,65.80
2019-04-04T01:42:38.736Z,66.80
2019-04-04T01:43:40.689Z,66.00
2019-04-04T01:44:42.172Z,66.80
2019-04-04T01:45:44.860Z,65.60
2019-04-04T01:46:46.602Z,65.70
2019-04-04T01:47:48.092Z,65.30
2019-04-04T01:48:50.056Z,65.50
2019-04-04T01:49:51.997Z,65.50
2019-04-04T01:50:54.213Z,65.50
2019-04-04T01:51:57.714Z,65.40
2019-04-04T01:52:59.375Z,66.00
2019-04-04T01:54:01.642Z,65.80
2019-04-04T01:55:04.236Z,65.50
2019-04-04T01:56:06.837Z,65.50
2019-04-04T01:57:08.757Z,66.10
2019-04-04T01:58:10.635Z,66.30
2019-04-04T01:59:12.283Z,66.10
2019-04-04T02:00:15.100Z,65.80
2019-04-04T02:01:17.123Z,65.60
2019-04-04T02:02:18.615Z,65.60
2019-04-04T02:03:22.506Z,65.60
2019-04-04T02:04:22.924Z,65.60
2019-04-04T02:05:27.067Z,65.80
2019-04-04T02:06:29.075Z,65.30
2019-04-04T02:07:30.478Z,65.10
2019-04-04T02:08:32.067Z,65.00
2019-04-04T02:09:34.577Z,65.10
2019-04-04T02:10:36.049Z,65.30
2019-04-04T02:11:37.612Z,65.40
2019-04-04T02:12:39.382Z,65.60
2019-04-04T02:13:40.943Z,65.60
2019-04-04T02:14:43.121Z,65.60
2019-04-04T02:15:45.251Z,65.50
2019-04-04T02:16:50.770Z,65.80
2019-04-04T02:17:51.077Z,65.80
2019-04-04T02:18:53.815Z,66.20
2019-04-04T02:19:58.712Z,66.40
2019-04-04T02:20:59.733Z,66.40
2019-04-04T02:22:00.756Z,66.40
2019-04-04T02:23:01.938Z,66.50
2019-04-04T02:24:03.090Z,66.40
2019-04-04T02:25:05.501Z,67.00
2019-04-04T02:26:06.517Z,66.40
2019-04-04T02:27:07.643Z,66.50
2019-04-04T02:28:09.487Z,66.40
2019-04-04T02:29:11.066Z,66.60
2019-04-04T02:30:16.007Z,66.40
2019-04-04T02:31:15.903Z,66.10
2019-04-04T02:32:25.948Z,66.50
2019-04-04T02:33:24.257Z,66.60
2019-04-04T02:34:25.271Z,66.50
2019-04-04T02:35:26.273Z,66.00
2019-04-04T02:36:27.285Z,65.80
2019-04-04T02:37:28.307Z,65.70
2019-04-04T02:38:29.307Z,65.60
2019-04-04T02:39:30.315Z,65.50
2019-04-04T02:40:31.331Z,65.50
2019-04-04T02:41:32.349Z,65.40
2019-04-04T02:42:33.549Z,65.40
2019-04-04T02:43:34.580Z,65.60
2019-04-04T02:44:35.652Z,65.70
2019-04-04T02:45:38.783Z,65.50
2019-04-04T02:46:44.097Z,65.60
2019-04-04T02:47:42.493Z,65.80
2019-04-04T02:48:43.512Z,66.00
2019-04-04T02:49:44.664Z,65.70
2019-04-04T02:50:45.681Z,65.50
2019-04-04T02:51:46.710Z,65.50
2019-04-04T02:52:47.726Z,65.70
2019-04-04T02:53:51.920Z,66.50
2019-04-04T02:54:51.867Z,66.70
2019-04-04T02:55:52.876Z,66.60
2019-04-04T02:56:53.903Z,66.50
2019-04-04T02:57:54.940Z,66.50
2019-04-04T02:58:55.962Z,66.50
2019-04-04T02:59:56.969Z,66.50
2019-04-04T03:01:00.364Z,66.20
2019-04-04T03:02:04.734Z,66.20
2019-04-04T03:03:08.228Z,66.20
2019-04-04T03:04:06.733Z,66.50
2019-04-04T03:05:08.145Z,66.60
2019-04-04T03:06:09.163Z,66.50
2019-04-04T03:07:10.175Z,66.30
2019-04-04T03:08:11.181Z,66.20
2019-04-04T03:09:12.180Z,66.20
2019-04-04T03:10:16.515Z,66.30
2019-04-04T03:11:16.205Z,66.20
2019-04-04T03:12:17.476Z,66.00
2019-04-04T03:13:18.488Z,66.00
2019-04-04T03:14:19.493Z,66.00
2019-04-04T03:15:20.497Z,66.40
2019-04-04T03:16:22.462Z,66.60
2019-04-04T03:17:23.719Z,66.60
2019-04-04T03:18:24.733Z,66.60
2019-04-04T03:19:25.794Z,66.40
2019-04-04T03:20:26.853Z,66.60
2019-04-04T03:21:27.861Z,66.70
2019-04-04T03:22:28.872Z,66.80
2019-04-04T03:23:32.934Z,66.50
2019-04-04T03:24:32.799Z,66.40
2019-04-04T03:25:33.815Z,66.50
2019-04-04T03:26:34.920Z,66.00
2019-04-04T03:27:35.942Z,66.20
2019-04-04T03:28:36.954Z,66.00
2019-04-04T03:29:38.438Z,66.70
2019-04-04T03:30:39.678Z,65.90
2019-04-04T03:31:40.701Z,65.80
2019-04-04T03:32:41.805Z,65.70
2019-04-04T03:33:42.811Z,65.80
2019-04-04T03:34:50.210Z,65.90
2019-04-04T03:35:46.740Z,66.00
2019-04-04T03:36:47.741Z,66.20
2019-04-04T03:37:48.775Z,66.50
2019-04-04T03:38:49.784Z,66.40
2019-04-04T03:39:53.092Z,66.60
2019-04-04T03:40:57.442Z,66.60
2019-04-04T03:41:56.636Z,66.60
2019-04-04T03:42:57.659Z,66.60
2019-04-04T03:43:58.660Z,66.90
2019-04-04T03:44:59.902Z,67.00
2019-04-04T03:46:01.720Z,66.80
2019-04-04T03:47:03.020Z,66.70
2019-04-04T03:48:04.034Z,66.60
2019-04-04T03:49:05.036Z,66.60
2019-04-04T03:50:06.158Z,67.00
2019-04-04T03:51:07.165Z,67.30
2019-04-04T03:52:11.161Z,67.20
2019-04-04T03:53:16.344Z,67.30
2019-04-04T03:54:16.273Z,67.20
2019-04-04T03:55:17.284Z,67.40
2019-04-04T03:56:18.294Z,67.60
2019-04-04T03:57:19.316Z,68.20
2019-04-04T03:58:20.334Z,67.90
2019-04-04T03:59:21.355Z,68.20
2019-04-04T04:00:28.649Z,67.80
2019-04-04T04:01:29.659Z,67.50
2019-04-04T04:02:30.677Z,67.70
2019-04-04T04:03:31.700Z,67.50
2019-04-04T04:04:32.717Z,67.60
2019-04-04T04:05:35.672Z,67.50
2019-04-04T04:06:41.339Z,67.40
2019-04-04T04:07:39.566Z,67.80
2019-04-04T04:08:40.578Z,67.60
2019-04-04T04:09:41.587Z,67.60
2019-04-04T04:10:42.584Z,67.60
2019-04-04T04:11:43.592Z,68.20
2019-04-04T04:12:44.609Z,67.80
2019-04-04T04:13:48.848Z,68.20
2019-04-04T04:14:48.540Z,68.10
2019-04-04T04:15:49.543Z,68.30
2019-04-04T04:16:50.545Z,67.80
2019-04-04T04:17:51.568Z,67.90
2019-04-04T04:18:54.430Z,67.80
2019-04-04T04:19:55.527Z,67.60
2019-04-04T04:20:56.535Z,67.80
2019-04-04T04:21:57.550Z,68.50
2019-04-04T04:22:58.581Z,68.20
2019-04-04T04:23:59.592Z,68.00
2019-04-04T04:25:03.479Z,67.90
2019-04-04T04:26:08.287Z,67.60
2019-04-04T04:27:06.405Z,67.60
2019-04-04T04:28:07.424Z,68.40
2019-04-04T04:29:08.441Z,67.60
2019-04-04T04:30:09.666Z,67.40
2019-04-04T04:31:14.218Z,67.10
2019-04-04T04:32:13.676Z,67.10
2019-04-04T04:33:14.698Z,67.60
2019-04-04T04:34:15.717Z,67.60
2019-04-04T04:35:16.721Z,67.80
2019-04-04T04:36:17.743Z,68.20
2019-04-04T04:37:20.482Z,68.50
2019-04-04T04:38:25.517Z,68.30
2019-04-04T04:39:24.599Z,67.60
2019-04-04T04:40:25.610Z,67.50
2019-04-04T04:41:26.614Z,67.40
2019-04-04T04:42:27.628Z,67.20
2019-04-04T04:43:32.407Z,67.30
2019-04-04T04:44:31.574Z,67.30
2019-04-04T04:45:32.568Z,67.80
2019-04-04T04:46:33.572Z,67.90
2019-04-04T04:47:34.593Z,67.30
2019-04-04T04:48:35.602Z,67.30
2019-04-04T04:49:36.623Z,67.00
2019-04-04T04:50:40.065Z,66.60
2019-04-04T04:51:43.331Z,66.60
2019-04-04T04:52:46.559Z,66.60
2019-04-04T04:53:48.229Z,66.20
2019-04-04T04:54:49.409Z,66.00
2019-04-04T04:55:50.416Z,66.00
2019-04-04T04:56:51.437Z,66.20
2019-04-04T04:57:55.966Z,66.10
2019-04-04T04:58:55.735Z,66.40
2019-04-04T04:59:56.893Z,66.50
2019-04-04T05:00:57.899Z,66.40
2019-04-04T05:01:58.915Z,66.40
2019-04-04T05:02:59.936Z,66.60
2019-04-04T05:04:02.517Z,66.80
2019-04-04T05:05:05.158Z,67.00
2019-04-04T05:06:06.156Z,67.00
2019-04-04T05:07:08.008Z,66.70
2019-04-04T05:08:10.111Z,67.10
2019-04-04T05:09:13.924Z,67.30
2019-04-04T05:10:15.626Z,67.60
2019-04-04T05:11:18.660Z,67.30
2019-04-04T05:12:21.642Z,67.00
2019-04-04T05:13:24.581Z,67.00
2019-04-04T05:14:25.450Z,67.10
2019-04-04T05:15:26.455Z,67.60
2019-04-04T05:16:27.472Z,67.10
2019-04-04T05:17:28.467Z,67.10
2019-04-04T05:18:29.480Z,67.30
2019-04-04T05:19:30.501Z,67.40
2019-04-04T05:20:31.607Z,68.20
2019-04-04T05:21:34.556Z,68.00
2019-04-04T05:22:35.525Z,67.90
2019-04-04T05:23:36.548Z,67.30
2019-04-04T05:24:37.569Z,67.20
2019-04-04T05:25:50.620Z,67.50
2019-04-04T05:26:41.497Z,67.40
2019-04-04T05:27:42.522Z,67.50
2019-04-04T05:28:43.535Z,67.80
2019-04-04T05:29:44.996Z,67.20
2019-04-04T05:30:47.313Z,67.30
2019-04-04T05:31:50.139Z,67.40
2019-04-04T05:32:52.412Z,67.20
2019-04-04T05:33:54.693Z,67.00
2019-04-04T05:34:55.831Z,66.70
2019-04-04T05:35:56.912Z,67.90
2019-04-04T05:36:57.946Z,66.90
2019-04-04T05:37:59.043Z,67.00
2019-04-04T05:39:00.094Z,66.90
2019-04-04T05:40:01.203Z,67.00
2019-04-04T05:41:02.212Z,67.10
2019-04-04T05:42:03.316Z,67.30
2019-04-04T05:43:04.868Z,67.40
2019-04-04T05:44:08.914Z,67.60
2019-04-04T05:45:09.380Z,67.90
2019-04-04T05:46:10.448Z,68.00
2019-04-04T05:47:11.519Z,68.00
2019-04-04T05:48:12.618Z,68.00
2019-04-04T05:49:13.633Z,68.10
2019-04-04T05:50:16.416Z,68.40
2019-04-04T05:51:17.548Z,69.50
2019-04-04T05:52:18.588Z,69.50
2019-04-04T05:53:21.406Z,69.10
2019-04-04T05:54:22.522Z,70.10
2019-04-04T05:55:23.636Z,71.00
2019-04-04T05:56:24.666Z,70.20
2019-04-04T05:57:26.047Z,70.40
2019-04-04T05:58:27.066Z,70.50
2019-04-04T05:59:28.088Z,70.70
2019-04-04T06:00:29.198Z,70.30
2019-04-04T06:01:30.203Z,70.90
2019-04-04T06:02:31.247Z,71.00
2019-04-04T06:03:32.345Z,70.90
2019-04-04T06:04:33.383Z,71.00
2019-04-04T06:05:34.416Z,71.00
2019-04-04T06:06:35.408Z,71.30
2019-04-04T06:07:37.240Z,71.90
2019-04-04T06:08:42.451Z,71.00
2019-04-04T06:09:42.083Z,71.10
2019-04-04T06:10:43.300Z,70.50
2019-04-04T06:11:44.308Z,70.10
2019-04-04T06:12:45.315Z,70.20
2019-04-04T06:13:46.329Z,70.30
2019-04-04T06:14:47.351Z,70.40
2019-04-04T06:15:48.357Z,70.80
2019-04-04T06:16:49.363Z,70.70
2019-04-04T06:17:50.377Z,70.40
2019-04-04T06:18:51.399Z,70.50
2019-04-04T06:19:52.412Z,70.50
2019-04-04T06:20:53.423Z,70.00
2019-04-04T06:21:54.429Z,70.60
2019-04-04T06:22:55.437Z,69.30
2019-04-04T06:23:56.753Z,69.10
2019-04-04T06:24:59.428Z,69.50
2019-04-04T06:26:00.781Z,70.20
2019-04-04T06:27:01.805Z,69.80
2019-04-04T06:28:02.913Z,69.50
2019-04-04T06:29:05.637Z,69.60
2019-04-04T06:30:06.939Z,69.10
2019-04-04T06:31:07.954Z,69.70
2019-04-04T06:32:08.976Z,69.80
2019-04-04T06:33:09.983Z,69.80
2019-04-04T06:34:11.015Z,69.90
2019-04-04T06:35:13.226Z,70.20
2019-04-04T06:36:17.564Z,70.40
2019-04-04T06:37:20.056Z,70.30
2019-04-04T06:38:22.934Z,70.60
2019-04-04T06:39:25.246Z,71.00
2019-04-04T06:40:28.115Z,70.90
2019-04-04T06:41:30.678Z,70.80
2019-04-04T06:42:35.484Z,70.80
2019-04-04T06:43:35.713Z,71.00
2019-04-04T06:44:36.721Z,71.00
2019-04-04T06:45:37.749Z,70.40
2019-04-04T06:46:38.759Z,70.40
2019-04-04T06:47:39.870Z,70.20
2019-04-04T06:48:40.872Z,70.10
2019-04-04T06:49:41.880Z,70.40
2019-04-04T06:50:43.228Z,70.20
2019-04-04T06:51:46.459Z,70.20
2019-04-04T06:52:48.245Z,70.10
2019-04-04T06:53:53.316Z,70.20
2019-04-04T06:54:53.070Z,70.30
2019-04-04T06:55:54.077Z,70.40
2019-04-04T06:56:55.086Z,70.20
2019-04-04T06:57:56.093Z,70.10
2019-04-04T06:58:57.101Z,70.10
2019-04-04T06:59:58.126Z,70.30
2019-04-04T07:00:59.384Z,70.60
2019-04-04T07:02:00.392Z,70.90
2019-04-04T07:03:01.399Z,70.80
2019-04-04T07:04:02.713Z,70.80
2019-04-04T07:05:06.319Z,70.70
2019-04-04T07:06:10.195Z,71.50
2019-04-04T07:07:12.631Z,71.70
2019-04-04T07:08:15.196Z,71.60
2019-04-04T07:09:18.987Z,71.60
2019-04-04T07:10:21.759Z,71.50
2019-04-04T07:11:22.631Z,71.40
2019-04-04T07:12:28.290Z,71.70
2019-04-04T07:13:28.156Z,71.60
2019-04-04T07:14:35.119Z,71.10
2019-04-04T07:15:32.640Z,71.30
2019-04-04T07:16:34.210Z,71.00
2019-04-04T07:17:39.908Z,71.30
2019-04-04T07:18:40.931Z,71.10
2019-04-04T07:19:45.858Z,71.10
2019-04-04T07:20:48.072Z,71.00
2019-04-04T07:21:49.181Z,71.00
2019-04-04T07:22:51.209Z,71.40
2019-04-04T07:23:52.222Z,70.60
2019-04-04T07:24:53.224Z,70.70
2019-04-04T07:25:54.250Z,70.50
2019-04-04T07:26:55.277Z,70.60
2019-04-04T07:27:56.308Z,70.50
2019-04-04T07:28:57.301Z,70.80
2019-04-04T07:29:58.317Z,70.70
2019-04-04T07:31:01.512Z,70.90
2019-04-04T07:32:02.434Z,71.00
2019-04-04T07:33:03.432Z,70.90
2019-04-04T07:34:04.441Z,70.70
2019-04-04T07:35:05.954Z,70.90
2019-04-04T07:36:06.985Z,70.90
2019-04-04T07:37:07.988Z,71.20
2019-04-04T07:38:08.996Z,71.20
2019-04-04T07:39:12.304Z,71.70
2019-04-04T07:40:13.264Z,71.30
2019-04-04T07:41:14.870Z,71.50
2019-04-04T07:42:16.313Z,71.50
2019-04-04T07:43:19.379Z,71.90
2019-04-04T07:44:21.154Z,71.70
2019-04-04T07:45:25.965Z,71.80
2019-04-04T07:46:26.521Z,72.00
2019-04-04T07:47:27.538Z,72.00
2019-04-04T07:48:28.687Z,71.90
2019-04-04T07:49:29.768Z,71.80
2019-04-04T07:50:30.767Z,71.50
2019-04-04T07:51:31.779Z,71.30
2019-04-04T07:52:33.592Z,71.30
2019-04-04T07:53:36.452Z,70.80
2019-04-04T07:54:38.428Z,70.90
2019-04-04T07:55:42.152Z,70.80
2019-04-04T07:56:45.788Z,70.80
2019-04-04T07:57:45.961Z,70.80
2019-04-04T07:58:46.968Z,70.80
2019-04-04T07:59:47.975Z,70.80
2019-04-04T08:00:48.996Z,70.80
2019-04-04T08:01:51.300Z,70.80
2019-04-04T08:02:52.704Z,71.70
2019-04-04T08:03:53.723Z,70.80
2019-04-04T08:04:54.728Z,70.90
2019-04-04T08:05:55.748Z,70.90
2019-04-04T08:06:56.757Z,70.90
2019-04-04T08:07:57.762Z,70.90
2019-04-04T08:08:58.769Z,70.90
2019-04-04T08:09:59.778Z,71.10
2019-04-04T08:11:01.041Z,70.90
2019-04-04T08:12:02.043Z,70.50
2019-04-04T08:13:03.069Z,69.80
2019-04-04T08:14:04.079Z,70.30
2019-04-04T08:15:05.380Z,70.20
2019-04-04T08:16:06.401Z,70.00
2019-04-04T08:17:07.399Z,69.80
2019-04-04T08:18:08.399Z,69.90
2019-04-04T08:19:09.413Z,70.80
2019-04-04T08:20:10.620Z,70.20
2019-04-04T08:21:11.647Z,70.10
2019-04-04T08:22:12.746Z,70.10
2019-04-04T08:23:13.977Z,70.00
2019-04-04T08:24:15.000Z,70.10
2019-04-04T08:25:15.996Z,70.10
2019-04-04T08:26:17.016Z,70.30
2019-04-04T08:27:18.033Z,70.60
2019-04-04T08:28:19.051Z,70.60
2019-04-04T08:29:20.079Z,70.80
2019-04-04T08:30:21.135Z,70.80
2019-04-04T08:31:22.147Z,71.10
2019-04-04T08:32:23.154Z,71.20
2019-04-04T08:33:24.165Z,71.20
2019-04-04T08:34:25.172Z,71.10
2019-04-04T08:35:26.187Z,71.30
2019-04-04T08:36:27.203Z,71.30
2019-04-04T08:37:28.222Z,72.20
2019-04-04T08:38:29.858Z,71.20
2019-04-04T08:39:30.964Z,70.80
2019-04-04T08:40:31.979Z,70.60
2019-04-04T08:41:33.004Z,70.70
2019-04-04T08:42:34.025Z,70.50
2019-04-04T08:43:35.028Z,70.30
2019-04-04T08:44:36.028Z,70.10
2019-04-04T08:45:37.038Z,70.50
2019-04-04T08:46:38.052Z,70.60
2019-04-04T08:47:39.058Z,70.80
2019-04-04T08:48:40.064Z,71.20
2019-04-04T08:49:41.081Z,71.30
2019-04-04T08:50:42.122Z,70.80
2019-04-04T08:51:43.204Z,71.00
2019-04-04T08:52:44.208Z,70.90
2019-04-04T08:53:45.214Z,70.00
2019-04-04T08:54:46.233Z,69.80
2019-04-04T08:55:47.232Z,70.20
2019-04-04T08:56:48.259Z,70.60
2019-04-04T08:57:49.274Z,69.60
2019-04-04T08:58:51.698Z,69.50
2019-04-04T08:59:53.009Z,70.00
2019-04-04T09:00:54.015Z,69.20
2019-04-04T09:01:55.034Z,69.20
2019-04-04T09:02:56.042Z,69.20
2019-04-04T09:03:57.080Z,69.90
2019-04-04T09:05:10.883Z,69.10
2019-04-04T09:06:01.013Z,69.60
2019-04-04T09:07:02.028Z,69.50
2019-04-04T09:08:03.053Z,69.30
2019-04-04T09:09:05.159Z,69.10
2019-04-04T09:10:06.668Z,69.40
2019-04-04T09:11:07.675Z,69.80
2019-04-04T09:13:23.433Z,69.70
2019-04-04T09:14:24.700Z,70.20
2019-04-04T09:15:25.713Z,70.40
2019-04-04T09:16:26.718Z,70.00
2019-04-04T09:17:27.741Z,69.70
2019-04-04T09:18:28.750Z,69.70
2019-04-04T09:19:29.751Z,69.70
2019-04-04T09:20:30.763Z,69.90
2019-04-04T09:21:31.833Z,70.20
2019-04-04T09:22:32.915Z,69.80
2019-04-04T09:23:34.036Z,69.90
2019-04-04T09:24:36.126Z,69.60
2019-04-04T09:25:37.243Z,69.70
2019-04-04T09:26:38.256Z,69.90
2019-04-04T09:27:39.278Z,69.20
2019-04-04T09:28:40.290Z,69.10
2019-04-04T09:29:41.287Z,69.40
2019-04-04T09:30:42.287Z,69.30
2019-04-04T09:31:43.300Z,69.40
2019-04-04T09:32:44.328Z,69.10
2019-04-04T09:33:45.343Z,69.40
2019-04-04T09:34:46.346Z,68.30
2019-04-04T09:35:47.349Z,68.90
2019-04-04T09:36:48.355Z,69.00
2019-04-04T09:37:49.413Z,69.30
2019-04-04T09:38:50.429Z,69.70
2019-04-04T09:39:51.435Z,69.60
2019-04-04T09:40:52.447Z,70.00
2019-04-04T09:41:53.464Z,70.30
2019-04-04T09:42:54.545Z,70.10
2019-04-04T09:43:55.535Z,69.90
2019-04-04T09:44:56.544Z,69.60
2019-04-04T09:45:57.555Z,70.30
2019-04-04T09:47:05.354Z,69.70
2019-04-04T09:48:01.509Z,69.10
2019-04-04T09:49:02.613Z,69.60
2019-04-04T09:50:04.751Z,69.70
2019-04-04T09:51:05.747Z,70.40
2019-04-04T09:52:06.759Z,70.60
2019-04-04T09:53:07.785Z,70.80
2019-04-04T09:54:08.787Z,69.90
2019-04-04T09:55:10.100Z,69.50
2019-04-04T09:56:11.104Z,69.40
2019-04-04T09:57:12.116Z,69.50
2019-04-04T09:58:13.163Z,69.50
2019-04-04T09:59:14.240Z,69.50
2019-04-04T10:00:16.848Z,69.50
2019-04-04T10:01:17.864Z,69.30
2019-04-04T10:02:18.889Z,69.60
2019-04-04T10:03:19.884Z,69.60
2019-04-04T10:04:20.903Z,68.90
2019-04-04T10:05:21.912Z,69.30
2019-04-04T10:06:22.928Z,69.70
2019-04-04T10:07:25.260Z,70.10
2019-04-04T10:08:26.822Z,70.00
2019-04-04T10:09:27.808Z,69.20
2019-04-04T10:10:28.825Z,69.20
2019-04-04T10:11:29.841Z,69.30
2019-04-04T10:12:30.857Z,69.10
2019-04-04T10:13:31.871Z,69.10
2019-04-04T10:14:32.880Z,69.30
2019-04-04T10:15:33.996Z,69.30
2019-04-04T10:16:34.995Z,68.70
2019-04-04T10:17:36.116Z,68.80
2019-04-04T10:18:37.225Z,68.80
2019-04-04T10:19:38.215Z,68.60
2019-04-04T10:20:39.212Z,69.30
2019-04-04T10:21:40.218Z,69.00
2019-04-04T10:22:41.228Z,69.30
2019-04-04T10:23:42.252Z,69.40
2019-04-04T10:24:43.258Z,69.10
2019-04-04T10:25:44.266Z,69.20
2019-04-04T10:26:45.277Z,69.70
2019-04-04T10:27:46.293Z,68.90
2019-04-04T10:28:47.305Z,68.70
2019-04-04T10:29:48.337Z,68.70
2019-04-04T10:30:49.332Z,68.90
2019-04-04T10:31:50.343Z,68.80
2019-04-04T10:32:51.400Z,68.80
2019-04-04T10:33:52.415Z,68.70
2019-04-04T10:34:53.415Z,68.30
2019-04-04T10:35:54.439Z,68.70
2019-04-04T10:36:55.566Z,68.20
2019-04-04T10:37:56.579Z,68.30
2019-04-04T10:38:57.588Z,68.20
2019-04-04T10:39:58.617Z,68.50
2019-04-04T10:40:59.621Z,68.60
2019-04-04T10:42:00.629Z,69.00
2019-04-04T10:43:01.764Z,69.50
2019-04-04T10:44:02.872Z,69.10
2019-04-04T10:45:07.568Z,69.30
2019-04-04T10:46:08.596Z,69.40
2019-04-04T10:47:09.613Z,69.80
2019-04-04T10:48:10.887Z,69.40
2019-04-04T10:49:11.899Z,69.20
2019-04-04T10:50:13.221Z,69.30
2019-04-04T10:51:14.224Z,69.40
2019-04-04T10:52:15.238Z,69.70
2019-04-04T10:53:16.247Z,69.70
2019-04-04T10:54:17.256Z,70.60
2019-04-04T10:55:18.367Z,70.80
2019-04-04T10:56:19.377Z,71.30
2019-04-04T10:57:20.381Z,71.30
2019-04-04T10:58:21.403Z,71.30
2019-04-04T10:59:22.408Z,72.00
2019-04-04T11:00:23.417Z,71.40
2019-04-04T11:01:24.423Z,72.50
2019-04-04T11:02:25.432Z,72.80
2019-04-04T11:03:26.479Z,72.90
2019-04-04T11:04:27.484Z,72.60
2019-04-04T11:05:28.494Z,73.00
2019-04-04T11:06:29.512Z,73.00
2019-04-04T11:07:30.513Z,73.50
2019-04-04T11:08:31.530Z,73.40
2019-04-04T11:09:42.010Z,73.70
2019-04-04T11:10:35.452Z,73.50
2019-04-04T11:11:36.455Z,73.50
2019-04-04T11:12:37.463Z,73.30
2019-04-04T11:13:38.480Z,73.40
2019-04-04T11:14:39.768Z,73.40
2019-04-04T11:15:40.784Z,73.50
2019-04-04T11:16:41.796Z,73.90
2019-04-04T11:17:42.807Z,73.10
2019-04-04T11:18:43.844Z,73.70
2019-04-04T11:19:44.845Z,73.80
2019-04-04T11:20:46.122Z,74.10
2019-04-04T11:21:47.132Z,74.50
2019-04-04T11:22:48.140Z,74.40
2019-04-04T11:23:49.151Z,74.30
2019-04-04T11:24:50.166Z,75.00
2019-04-04T11:25:51.164Z,74.50
2019-04-04T11:26:52.395Z,74.50
2019-04-04T11:27:53.398Z,74.80
2019-04-04T11:28:54.412Z,74.80
2019-04-04T11:29:55.414Z,74.20
2019-04-04T11:30:56.432Z,74.20
2019-04-04T11:31:57.449Z,74.90
2019-04-04T11:32:58.504Z,74.60
2019-04-04T11:33:59.549Z,74.90
2019-04-04T11:35:00.561Z,74.10
2019-04-04T11:36:01.568Z,73.70
2019-04-04T11:37:02.581Z,73.30
2019-04-04T11:38:03.851Z,73.60
2019-04-04T11:39:05.555Z,73.40
2019-04-04T11:40:06.873Z,73.50
2019-04-04T11:41:07.883Z,73.70
2019-04-04T11:42:08.887Z,74.10
2019-04-04T11:43:10.031Z,74.10
2019-04-04T11:44:11.125Z,74.50
2019-04-04T11:45:12.381Z,74.60
2019-04-04T11:46:13.465Z,74.50
2019-04-04T11:47:14.470Z,74.60
2019-04-04T11:48:15.483Z,74.40
2019-04-04T11:49:16.492Z,74.70
2019-04-04T11:50:17.525Z,74.60
2019-04-04T11:51:18.537Z,73.20
2019-04-04T11:52:19.551Z,73.00
2019-04-04T11:53:20.578Z,72.90
2019-04-04T11:54:21.584Z,72.80
2019-04-04T11:55:22.615Z,73.00
2019-04-04T11:56:23.611Z,73.50
2019-04-04T11:57:24.639Z,73.10
2019-04-04T11:58:25.654Z,73.10
2019-04-04T11:59:26.651Z,72.50
2019-04-04T12:00:29.559Z,72.30
2019-04-04T12:01:32.463Z,72.10
2019-04-04T12:02:33.467Z,72.00
2019-04-04T12:03:34.490Z,71.90
2019-04-04T12:04:35.871Z,71.40
2019-04-04T12:05:36.885Z,71.50
2019-04-04T12:06:37.897Z,71.80
2019-04-04T12:07:38.920Z,70.90
2019-04-04T12:08:40.011Z,70.90
2019-04-04T12:09:41.104Z,71.00
2019-04-04T12:10:42.224Z,71.40
2019-04-04T12:11:43.220Z,70.90
2019-04-04T12:12:44.242Z,70.90
2019-04-04T12:13:45.248Z,71.30
2019-04-04T12:14:46.255Z,71.10
2019-04-04T12:15:47.278Z,71.60
2019-04-04T12:16:48.547Z,71.60
2019-04-04T12:17:49.547Z,71.60
2019-04-04T12:18:50.564Z,71.90
2019-04-04T12:19:51.572Z,72.00
2019-04-04T12:20:52.588Z,71.90
2019-04-04T12:21:53.597Z,71.80
2019-04-04T12:22:54.600Z,71.70
2019-04-04T12:23:55.615Z,71.70
2019-04-04T12:24:56.612Z,71.60
2019-04-04T12:25:57.616Z,71.60
2019-04-04T12:26:58.625Z,71.90
2019-04-04T12:27:59.637Z,71.60
2019-04-04T12:29:00.656Z,71.50
2019-04-04T12:30:03.464Z,71.50
2019-04-04T12:31:04.472Z,71.60
2019-04-04T12:32:05.483Z,71.60
2019-04-04T12:33:06.485Z,71.90
2019-04-04T12:34:07.510Z,71.40
2019-04-04T12:35:08.519Z,71.80
2019-04-04T12:36:09.516Z,72.30
2019-04-04T12:37:10.519Z,71.10
2019-04-04T12:38:11.534Z,70.80
2019-04-04T12:39:12.553Z,70.70
2019-04-04T12:40:20.349Z,71.00
2019-04-04T12:41:16.896Z,71.20
2019-04-04T12:42:17.896Z,71.80
2019-04-04T12:43:18.903Z,72.20
2019-04-04T12:44:19.936Z,72.60
2019-04-04T12:45:20.954Z,72.60
2019-04-04T12:46:21.960Z,72.90
2019-04-04T12:47:22.969Z,72.90
2019-04-04T12:48:23.991Z,72.90
2019-04-04T12:49:24.996Z,73.30
2019-04-04T12:50:26.008Z,73.30
2019-04-04T12:51:27.017Z,72.70
2019-04-04T12:52:28.111Z,73.00
2019-04-04T12:53:29.160Z,72.80
2019-04-04T12:54:30.166Z,73.30
2019-04-04T12:55:31.167Z,72.90
2019-04-04T12:56:32.169Z,72.70
2019-04-04T12:57:33.169Z,72.60
2019-04-04T12:58:34.201Z,72.70
2019-04-04T12:59:35.197Z,72.40
2019-04-04T13:00:36.212Z,72.70
2019-04-04T13:01:37.221Z,72.40
2019-04-04T13:02:38.227Z,71.00
2019-04-04T13:03:39.253Z,71.00
2019-04-04T13:04:40.269Z,71.00
2019-04-04T13:05:41.272Z,71.10
2019-04-04T13:06:42.417Z,71.00
2019-04-04T13:07:43.431Z,70.30
2019-04-04T13:08:44.547Z,70.30
2019-04-04T13:09:45.553Z,71.30
2019-04-04T13:10:46.592Z,71.20
2019-04-04T13:11:47.600Z,70.80